sensor_id;sensor_type;location;lat;lon;timestamp;P1;durP1;ratioP1;P2;durP2;ratioP2
74904;SDS011;63465;50.862;6.220;2023-07-08T00:01:55;7.60;;;5.63;;
74904;SDS011;63465;50.862;6.220;2023-07-08T00:04:20;9.57;;;5.80;;
74904;SDS011;63465;50.862;6.220;2023-07-08T00:06:47;8.17;;;5.60;;
74904;SDS011;63465;50.862;6.220;2023-07-08T00:09:12;8.03;;;5.03;;
74904;SDS011;63465;50.862;6.220;2023-07-08T00:11:38;10.23;;;6.50;;
74904;SDS011;63465;50.862;6.220;2023-07-08T00:14:03;10.07;;;5.83;;
74904;SDS011;63465;50.862;6.220;2023-07-08T00:16:29;11.70;;;6.33;;
74904;SDS011;63465;50.862;6.220;2023-07-08T00:18:54;8.90;;;6.17;;
74904;SDS011;63465;50.862;6.220;2023-07-08T00:21:19;9.13;;;6.17;;
74904;SDS011;63465;50.862;6.220;2023-07-08T00:23:48;9.93;;;6.73;;
74904;SDS011;63465;50.862;6.220;2023-07-08T00:28:49;11.43;;;6.37;;
74904;SDS011;63465;50.862;6.220;2023-07-08T00:31:14;12.77;;;6.63;;
74904;SDS011;63465;50.862;6.220;2023-07-08T00:33:40;9.90;;;6.10;;
74904;SDS011;63465;50.862;6.220;2023-07-08T00:36:11;13.87;;;7.00;;
74904;SDS011;63465;50.862;6.220;2023-07-08T00:38:39;13.27;;;7.20;;
74904;SDS011;63465;50.862;6.220;2023-07-08T00:41:25;10.43;;;6.23;;
74904;SDS011;63465;50.862;6.220;2023-07-08T00:43:54;13.00;;;7.10;;
74904;SDS011;63465;50.862;6.220;2023-07-08T00:47:04;14.20;;;6.80;;
74904;SDS011;63465;50.862;6.220;2023-07-08T00:49:29;11.60;;;6.63;;
74904;SDS011;63465;50.862;6.220;2023-07-08T00:52:22;12.30;;;6.80;;
74904;SDS011;63465;50.862;6.220;2023-07-08T00:54:53;11.53;;;6.40;;
74904;SDS011;63465;50.862;6.220;2023-07-08T00:57:21;12.20;;;7.00;;
74904;SDS011;63465;50.862;6.220;2023-07-08T01:00:04;11.60;;;6.13;;
74904;SDS011;63465;50.862;6.220;2023-07-08T01:02:53;15.00;;;6.50;;
74904;SDS011;63465;50.862;6.220;2023-07-08T01:05:22;14.83;;;7.73;;
74904;SDS011;63465;50.862;6.220;2023-07-08T01:07:51;11.00;;;5.77;;
74904;SDS011;63465;50.862;6.220;2023-07-08T01:10:22;10.23;;;5.97;;
74904;SDS011;63465;50.862;6.220;2023-07-08T01:12:54;9.10;;;6.17;;
74904;SDS011;63465;50.862;6.220;2023-07-08T01:15:24;11.60;;;7.37;;
74904;SDS011;63465;50.862;6.220;2023-07-08T01:17:54;14.90;;;6.37;;
74904;SDS011;63465;50.862;6.220;2023-07-08T01:20:20;13.63;;;6.37;;
74904;SDS011;63465;50.862;6.220;2023-07-08T01:22:45;8.47;;;6.20;;
74904;SDS011;63465;50.862;6.220;2023-07-08T01:25:11;10.63;;;6.60;;
74904;SDS011;63465;50.862;6.220;2023-07-08T01:27:39;11.37;;;5.70;;
74904;SDS011;63465;50.862;6.220;2023-07-08T01:30:08;10.10;;;6.50;;
74904;SDS011;63465;50.862;6.220;2023-07-08T01:32:36;10.37;;;6.50;;
74904;SDS011;63465;50.862;6.220;2023-07-08T01:35:04;10.70;;;6.10;;
74904;SDS011;63465;50.862;6.220;2023-07-08T01:40:13;10.70;;;5.80;;
74904;SDS011;63465;50.862;6.220;2023-07-08T01:42:44;11.33;;;6.43;;
74904;SDS011;63465;50.862;6.220;2023-07-08T01:45:13;8.03;;;5.87;;
74904;SDS011;63465;50.862;6.220;2023-07-08T01:47:41;10.03;;;6.23;;
74904;SDS011;63465;50.862;6.220;2023-07-08T01:50:11;10.00;;;6.10;;
74904;SDS011;63465;50.862;6.220;2023-07-08T01:52:37;12.50;;;7.50;;
74904;SDS011;63465;50.862;6.220;2023-07-08T01:55:03;9.07;;;6.33;;
74904;SDS011;63465;50.862;6.220;2023-07-08T01:57:29;9.80;;;6.47;;
74904;SDS011;63465;50.862;6.220;2023-07-08T01:59:54;12.67;;;6.40;;
74904;SDS011;63465;50.862;6.220;2023-07-08T02:02:19;12.10;;;7.13;;
74904;SDS011;63465;50.862;6.220;2023-07-08T02:04:45;8.90;;;6.33;;
74904;SDS011;63465;50.862;6.220;2023-07-08T02:07:10;14.80;;;6.33;;
74904;SDS011;63465;50.862;6.220;2023-07-08T02:09:35;13.53;;;6.80;;
74904;SDS011;63465;50.862;6.220;2023-07-08T02:12:01;11.10;;;6.77;;
74904;SDS011;63465;50.862;6.220;2023-07-08T02:14:26;17.47;;;7.63;;
74904;SDS011;63465;50.862;6.220;2023-07-08T02:16:51;11.30;;;6.80;;
74904;SDS011;63465;50.862;6.220;2023-07-08T02:19:17;13.80;;;6.63;;
74904;SDS011;63465;50.862;6.220;2023-07-08T02:21:42;9.40;;;6.00;;
74904;SDS011;63465;50.862;6.220;2023-07-08T02:24:08;10.00;;;6.77;;
74904;SDS011;63465;50.862;6.220;2023-07-08T02:26:33;10.80;;;6.50;;
74904;SDS011;63465;50.862;6.220;2023-07-08T02:28:59;9.70;;;6.00;;
74904;SDS011;63465;50.862;6.220;2023-07-08T02:31:24;18.37;;;6.33;;
74904;SDS011;63465;50.862;6.220;2023-07-08T02:33:51;12.77;;;6.40;;
74904;SDS011;63465;50.862;6.220;2023-07-08T02:36:17;12.70;;;6.57;;
74904;SDS011;63465;50.862;6.220;2023-07-08T02:38:42;8.93;;;6.60;;
74904;SDS011;63465;50.862;6.220;2023-07-08T02:41:07;16.10;;;7.30;;
74904;SDS011;63465;50.862;6.220;2023-07-08T02:43:33;11.83;;;6.70;;
74904;SDS011;63465;50.862;6.220;2023-07-08T02:45:58;14.80;;;6.73;;
74904;SDS011;63465;50.862;6.220;2023-07-08T02:48:23;13.53;;;6.90;;
74904;SDS011;63465;50.862;6.220;2023-07-08T02:50:49;13.43;;;6.20;;
74904;SDS011;63465;50.862;6.220;2023-07-08T02:53:14;9.17;;;6.50;;
74904;SDS011;63465;50.862;6.220;2023-07-08T02:55:39;16.97;;;7.10;;
74904;SDS011;63465;50.862;6.220;2023-07-08T02:58:07;10.70;;;6.60;;
74904;SDS011;63465;50.862;6.220;2023-07-08T03:00:33;11.60;;;6.37;;
74904;SDS011;63465;50.862;6.220;2023-07-08T03:02:58;14.53;;;7.10;;
74904;SDS011;63465;50.862;6.220;2023-07-08T03:05:24;16.20;;;7.67;;
74904;SDS011;63465;50.862;6.220;2023-07-08T03:07:50;14.23;;;7.30;;
74904;SDS011;63465;50.862;6.220;2023-07-08T03:10:16;16.70;;;6.80;;
74904;SDS011;63465;50.862;6.220;2023-07-08T03:12:41;12.73;;;6.77;;
74904;SDS011;63465;50.862;6.220;2023-07-08T03:15:06;12.07;;;7.13;;
74904;SDS011;63465;50.862;6.220;2023-07-08T03:17:32;12.63;;;7.00;;
74904;SDS011;63465;50.862;6.220;2023-07-08T03:19:57;14.27;;;6.57;;
74904;SDS011;63465;50.862;6.220;2023-07-08T03:22:23;14.60;;;6.93;;
74904;SDS011;63465;50.862;6.220;2023-07-08T03:24:48;11.30;;;6.90;;
74904;SDS011;63465;50.862;6.220;2023-07-08T03:27:14;12.93;;;6.27;;
74904;SDS011;63465;50.862;6.220;2023-07-08T03:29:40;15.63;;;7.67;;
74904;SDS011;63465;50.862;6.220;2023-07-08T03:32:06;14.50;;;7.10;;
74904;SDS011;63465;50.862;6.220;2023-07-08T03:34:34;12.27;;;7.67;;
74904;SDS011;63465;50.862;6.220;2023-07-08T03:37:00;12.70;;;7.77;;
74904;SDS011;63465;50.862;6.220;2023-07-08T03:39:25;17.20;;;7.30;;
74904;SDS011;63465;50.862;6.220;2023-07-08T03:41:51;16.60;;;6.67;;
74904;SDS011;63465;50.862;6.220;2023-07-08T03:44:17;14.07;;;7.63;;
74904;SDS011;63465;50.862;6.220;2023-07-08T03:46:43;12.00;;;7.23;;
74904;SDS011;63465;50.862;6.220;2023-07-08T03:49:10;15.40;;;7.30;;
74904;SDS011;63465;50.862;6.220;2023-07-08T03:51:36;25.87;;;7.20;;
74904;SDS011;63465;50.862;6.220;2023-07-08T03:54:05;12.30;;;7.40;;
74904;SDS011;63465;50.862;6.220;2023-07-08T03:56:33;17.90;;;7.67;;
74904;SDS011;63465;50.862;6.220;2023-07-08T03:58:59;17.57;;;8.57;;
74904;SDS011;63465;50.862;6.220;2023-07-08T04:01:24;15.47;;;7.80;;
74904;SDS011;63465;50.862;6.220;2023-07-08T04:03:54;14.23;;;7.57;;
74904;SDS011;63465;50.862;6.220;2023-07-08T04:06:20;15.37;;;8.10;;
74904;SDS011;63465;50.862;6.220;2023-07-08T04:08:46;17.43;;;8.03;;
74904;SDS011;63465;50.862;6.220;2023-07-08T04:11:12;17.03;;;8.30;;
74904;SDS011;63465;50.862;6.220;2023-07-08T04:13:39;13.70;;;8.00;;
74904;SDS011;63465;50.862;6.220;2023-07-08T04:16:05;17.03;;;9.17;;
74904;SDS011;63465;50.862;6.220;2023-07-08T04:18:31;13.43;;;7.20;;
74904;SDS011;63465;50.862;6.220;2023-07-08T04:20:57;14.60;;;8.07;;
74904;SDS011;63465;50.862;6.220;2023-07-08T04:23:23;12.87;;;7.60;;
74904;SDS011;63465;50.862;6.220;2023-07-08T04:25:48;14.90;;;8.10;;
74904;SDS011;63465;50.862;6.220;2023-07-08T04:28:15;17.33;;;8.80;;
74904;SDS011;63465;50.862;6.220;2023-07-08T04:30:41;19.20;;;8.97;;
74904;SDS011;63465;50.862;6.220;2023-07-08T04:33:08;15.67;;;8.30;;
74904;SDS011;63465;50.862;6.220;2023-07-08T04:35:35;15.57;;;7.40;;
74904;SDS011;63465;50.862;6.220;2023-07-08T04:38:03;14.93;;;7.50;;
74904;SDS011;63465;50.862;6.220;2023-07-08T04:40:34;12.60;;;7.33;;
74904;SDS011;63465;50.862;6.220;2023-07-08T04:43:08;12.87;;;7.73;;
74904;SDS011;63465;50.862;6.220;2023-07-08T04:45:35;19.00;;;8.47;;
74904;SDS011;63465;50.862;6.220;2023-07-08T04:48:02;15.80;;;8.43;;
74904;SDS011;63465;50.862;6.220;2023-07-08T04:50:33;11.67;;;7.13;;
74904;SDS011;63465;50.862;6.220;2023-07-08T04:52:59;13.03;;;7.57;;
74904;SDS011;63465;50.862;6.220;2023-07-08T04:55:25;12.00;;;6.83;;
74904;SDS011;63465;50.862;6.220;2023-07-08T04:57:50;22.97;;;13.97;;
74904;SDS011;63465;50.862;6.220;2023-07-08T05:00:16;16.23;;;7.77;;
74904;SDS011;63465;50.862;6.220;2023-07-08T05:02:44;18.30;;;8.87;;
74904;SDS011;63465;50.862;6.220;2023-07-08T05:05:09;14.50;;;7.77;;
74904;SDS011;63465;50.862;6.220;2023-07-08T05:07:35;32.27;;;7.83;;
74904;SDS011;63465;50.862;6.220;2023-07-08T05:10:00;14.47;;;8.13;;
74904;SDS011;63465;50.862;6.220;2023-07-08T05:22:46;15.93;;;8.40;;
74904;SDS011;63465;50.862;6.220;2023-07-08T05:25:11;12.53;;;7.30;;
74904;SDS011;63465;50.862;6.220;2023-07-08T05:27:37;19.53;;;8.03;;
74904;SDS011;63465;50.862;6.220;2023-07-08T05:30:03;34.13;;;8.27;;
74904;SDS011;63465;50.862;6.220;2023-07-08T05:32:31;21.03;;;8.60;;
74904;SDS011;63465;50.862;6.220;2023-07-08T05:34:56;14.37;;;8.37;;
74904;SDS011;63465;50.862;6.220;2023-07-08T05:37:21;15.37;;;7.60;;
74904;SDS011;63465;50.862;6.220;2023-07-08T05:39:50;12.20;;;7.47;;
74904;SDS011;63465;50.862;6.220;2023-07-08T05:42:16;10.97;;;7.37;;
74904;SDS011;63465;50.862;6.220;2023-07-08T05:44:41;17.70;;;8.57;;
74904;SDS011;63465;50.862;6.220;2023-07-08T05:47:07;12.53;;;7.80;;
74904;SDS011;63465;50.862;6.220;2023-07-08T05:49:32;15.00;;;9.63;;
74904;SDS011;63465;50.862;6.220;2023-07-08T05:51:58;17.67;;;8.47;;
74904;SDS011;63465;50.862;6.220;2023-07-08T05:54:23;14.03;;;7.73;;
74904;SDS011;63465;50.862;6.220;2023-07-08T05:56:48;13.30;;;7.80;;
74904;SDS011;63465;50.862;6.220;2023-07-08T05:59:13;20.73;;;7.77;;
74904;SDS011;63465;50.862;6.220;2023-07-08T06:01:39;18.20;;;10.20;;
74904;SDS011;63465;50.862;6.220;2023-07-08T06:04:04;16.00;;;7.70;;
74904;SDS011;63465;50.862;6.220;2023-07-08T06:06:29;12.70;;;7.20;;
74904;SDS011;63465;50.862;6.220;2023-07-08T06:08:55;16.40;;;8.87;;
74904;SDS011;63465;50.862;6.220;2023-07-08T06:11:20;9.27;;;7.13;;
74904;SDS011;63465;50.862;6.220;2023-07-08T06:13:47;11.40;;;7.47;;
74904;SDS011;63465;50.862;6.220;2023-07-08T06:16:12;21.07;;;9.07;;
74904;SDS011;63465;50.862;6.220;2023-07-08T06:18:38;17.53;;;8.77;;
74904;SDS011;63465;50.862;6.220;2023-07-08T06:21:03;19.10;;;9.60;;
74904;SDS011;63465;50.862;6.220;2023-07-08T06:23:28;12.80;;;8.27;;
74904;SDS011;63465;50.862;6.220;2023-07-08T06:25:55;17.40;;;7.33;;
74904;SDS011;63465;50.862;6.220;2023-07-08T06:28:21;14.60;;;7.30;;
74904;SDS011;63465;50.862;6.220;2023-07-08T06:30:47;11.90;;;7.30;;
74904;SDS011;63465;50.862;6.220;2023-07-08T06:33:12;11.53;;;7.00;;
74904;SDS011;63465;50.862;6.220;2023-07-08T06:35:38;16.73;;;8.30;;
74904;SDS011;63465;50.862;6.220;2023-07-08T06:38:04;13.50;;;7.80;;
74904;SDS011;63465;50.862;6.220;2023-07-08T06:40:31;9.23;;;7.00;;
74904;SDS011;63465;50.862;6.220;2023-07-08T06:42:56;15.40;;;8.30;;
74904;SDS011;63465;50.862;6.220;2023-07-08T06:45:22;14.20;;;7.40;;
74904;SDS011;63465;50.862;6.220;2023-07-08T06:47:47;16.97;;;8.50;;
74904;SDS011;63465;50.862;6.220;2023-07-08T06:50:12;11.30;;;7.40;;
74904;SDS011;63465;50.862;6.220;2023-07-08T06:52:37;13.90;;;7.80;;
74904;SDS011;63465;50.862;6.220;2023-07-08T06:55:04;14.60;;;7.50;;
74904;SDS011;63465;50.862;6.220;2023-07-08T06:57:32;13.40;;;7.33;;
74904;SDS011;63465;50.862;6.220;2023-07-08T06:59:58;11.57;;;7.37;;
74904;SDS011;63465;50.862;6.220;2023-07-08T07:02:23;10.90;;;6.77;;
74904;SDS011;63465;50.862;6.220;2023-07-08T07:04:48;12.70;;;6.63;;
74904;SDS011;63465;50.862;6.220;2023-07-08T07:07:14;11.73;;;6.03;;
74904;SDS011;63465;50.862;6.220;2023-07-08T07:09:39;9.10;;;6.33;;
74904;SDS011;63465;50.862;6.220;2023-07-08T07:12:05;13.97;;;7.33;;
74904;SDS011;63465;50.862;6.220;2023-07-08T07:14:31;12.57;;;7.53;;
74904;SDS011;63465;50.862;6.220;2023-07-08T07:16:56;12.20;;;6.90;;
74904;SDS011;63465;50.862;6.220;2023-07-08T07:19:22;7.93;;;6.33;;
74904;SDS011;63465;50.862;6.220;2023-07-08T07:21:47;8.87;;;6.83;;
74904;SDS011;63465;50.862;6.220;2023-07-08T07:24:12;8.80;;;6.40;;
74904;SDS011;63465;50.862;6.220;2023-07-08T07:26:38;10.50;;;6.40;;
74904;SDS011;63465;50.862;6.220;2023-07-08T07:29:04;8.47;;;5.87;;
74904;SDS011;63465;50.862;6.220;2023-07-08T07:31:30;10.93;;;6.80;;
74904;SDS011;63465;50.862;6.220;2023-07-08T07:33:56;9.07;;;6.13;;
74904;SDS011;63465;50.862;6.220;2023-07-08T07:36:21;10.83;;;7.97;;
74904;SDS011;63465;50.862;6.220;2023-07-08T07:38:46;14.33;;;8.97;;
74904;SDS011;63465;50.862;6.220;2023-07-08T07:41:12;6.83;;;6.00;;
74904;SDS011;63465;50.862;6.220;2023-07-08T07:43:37;13.20;;;7.43;;
74904;SDS011;63465;50.862;6.220;2023-07-08T07:46:03;8.47;;;6.00;;
74904;SDS011;63465;50.862;6.220;2023-07-08T07:48:30;8.83;;;6.00;;
74904;SDS011;63465;50.862;6.220;2023-07-08T07:50:55;8.83;;;5.53;;
74904;SDS011;63465;50.862;6.220;2023-07-08T07:53:21;12.67;;;6.77;;
74904;SDS011;63465;50.862;6.220;2023-07-08T07:55:46;10.80;;;6.27;;
74904;SDS011;63465;50.862;6.220;2023-07-08T07:58:11;11.73;;;6.90;;
74904;SDS011;63465;50.862;6.220;2023-07-08T08:00:37;8.67;;;6.33;;
74904;SDS011;63465;50.862;6.220;2023-07-08T08:03:03;9.80;;;6.50;;
74904;SDS011;63465;50.862;6.220;2023-07-08T08:05:29;6.57;;;5.83;;
74904;SDS011;63465;50.862;6.220;2023-07-08T08:07:54;9.17;;;5.87;;
74904;SDS011;63465;50.862;6.220;2023-07-08T08:10:19;11.33;;;6.33;;
74904;SDS011;63465;50.862;6.220;2023-07-08T08:12:45;12.20;;;6.70;;
74904;SDS011;63465;50.862;6.220;2023-07-08T08:15:11;11.20;;;6.47;;
74904;SDS011;63465;50.862;6.220;2023-07-08T08:17:36;13.20;;;5.90;;
74904;SDS011;63465;50.862;6.220;2023-07-08T08:20:02;14.10;;;6.13;;
74904;SDS011;63465;50.862;6.220;2023-07-08T08:22:27;8.30;;;6.43;;
74904;SDS011;63465;50.862;6.220;2023-07-08T08:24:52;8.30;;;5.93;;
74904;SDS011;63465;50.862;6.220;2023-07-08T08:27:18;12.77;;;6.20;;
74904;SDS011;63465;50.862;6.220;2023-07-08T08:29:43;10.23;;;6.20;;
74904;SDS011;63465;50.862;6.220;2023-07-08T08:32:09;8.90;;;6.20;;
74904;SDS011;63465;50.862;6.220;2023-07-08T08:34:34;10.13;;;5.78;;
74904;SDS011;63465;50.862;6.220;2023-07-08T08:36:59;13.10;;;6.03;;
74904;SDS011;63465;50.862;6.220;2023-07-08T08:39:25;11.43;;;5.20;;
74904;SDS011;63465;50.862;6.220;2023-07-08T08:41:54;15.43;;;5.68;;
74904;SDS011;63465;50.862;6.220;2023-07-08T08:44:22;7.25;;;5.30;;
74904;SDS011;63465;50.862;6.220;2023-07-08T08:52:30;9.85;;;6.15;;
74904;SDS011;63465;50.862;6.220;2023-07-08T08:54:55;7.20;;;6.20;;
74904;SDS011;63465;50.862;6.220;2023-07-08T08:57:25;10.40;;;6.43;;
74904;SDS011;63465;50.862;6.220;2023-07-08T09:00:01;7.20;;;5.70;;
74904;SDS011;63465;50.862;6.220;2023-07-08T09:05:08;7.00;;;5.73;;
74904;SDS011;63465;50.862;6.220;2023-07-08T09:10:57;10.13;;;5.80;;
74904;SDS011;63465;50.862;6.220;2023-07-08T09:13:08;9.23;;;7.17;;
74904;SDS011;63465;50.862;6.220;2023-07-08T09:15:41;12.63;;;6.53;;
74904;SDS011;63465;50.862;6.220;2023-07-08T09:18:14;9.40;;;6.27;;
74904;SDS011;63465;50.862;6.220;2023-07-08T09:20:44;9.03;;;5.80;;
74904;SDS011;63465;50.862;6.220;2023-07-08T09:23:11;7.87;;;6.00;;
74904;SDS011;63465;50.862;6.220;2023-07-08T09:25:49;9.70;;;6.60;;
74904;SDS011;63465;50.862;6.220;2023-07-08T09:28:34;9.23;;;6.20;;
74904;SDS011;63465;50.862;6.220;2023-07-08T09:31:01;8.15;;;5.80;;
74904;SDS011;63465;50.862;6.220;2023-07-08T09:33:30;8.98;;;5.68;;
74904;SDS011;63465;50.862;6.220;2023-07-08T09:35:55;8.82;;;6.07;;
74904;SDS011;63465;50.862;6.220;2023-07-08T09:38:21;9.48;;;5.20;;
74904;SDS011;63465;50.862;6.220;2023-07-08T09:40:48;9.82;;;5.60;;
74904;SDS011;63465;50.862;6.220;2023-07-08T09:43:26;8.00;;;5.40;;
74904;SDS011;63465;50.862;6.220;2023-07-08T09:46:01;6.60;;;5.75;;
74904;SDS011;63465;50.862;6.220;2023-07-08T09:48:28;9.60;;;5.22;;
74904;SDS011;63465;50.862;6.220;2023-07-08T09:50:56;7.53;;;5.03;;
74904;SDS011;63465;50.862;6.220;2023-07-08T09:53:22;6.03;;;5.15;;
74904;SDS011;63465;50.862;6.220;2023-07-08T09:55:49;5.68;;;4.82;;
74904;SDS011;63465;50.862;6.220;2023-07-08T09:58:19;11.75;;;4.57;;
74904;SDS011;63465;50.862;6.220;2023-07-08T10:00:57;6.57;;;4.82;;
74904;SDS011;63465;50.862;6.220;2023-07-08T10:03:31;5.15;;;4.63;;
74904;SDS011;63465;50.862;6.220;2023-07-08T10:05:58;7.10;;;4.68;;
74904;SDS011;63465;50.862;6.220;2023-07-08T10:08:33;6.88;;;4.88;;
74904;SDS011;63465;50.862;6.220;2023-07-08T10:13:45;9.55;;;4.00;;
74904;SDS011;63465;50.862;6.220;2023-07-08T10:16:23;7.07;;;5.03;;
74904;SDS011;63465;50.862;6.220;2023-07-08T10:18:50;5.00;;;4.43;;
74904;SDS011;63465;50.862;6.220;2023-07-08T10:24:13;4.75;;;4.30;;
74904;SDS011;63465;50.862;6.220;2023-07-08T10:26:46;5.65;;;5.10;;
74904;SDS011;63465;50.862;6.220;2023-07-08T10:34:42;4.65;;;4.30;;
74904;SDS011;63465;50.862;6.220;2023-07-08T10:46:14;3.95;;;3.67;;
74904;SDS011;63465;50.862;6.220;2023-07-08T10:57:02;4.65;;;4.25;;
74904;SDS011;63465;50.862;6.220;2023-07-08T11:10:35;8.05;;;4.22;;
74904;SDS011;63465;50.862;6.220;2023-07-08T11:13:12;4.18;;;3.85;;
74904;SDS011;63465;50.862;6.220;2023-07-08T11:15:43;5.20;;;3.97;;
74904;SDS011;63465;50.862;6.220;2023-07-08T11:18:17;4.93;;;4.20;;
74904;SDS011;63465;50.862;6.220;2023-07-08T11:20:54;6.72;;;3.90;;
74904;SDS011;63465;50.862;6.220;2023-07-08T11:23:33;10.63;;;4.55;;
74904;SDS011;63465;50.862;6.220;2023-07-08T11:28:45;4.40;;;4.00;;
74904;SDS011;63465;50.862;6.220;2023-07-08T11:31:12;7.05;;;4.25;;
74904;SDS011;63465;50.862;6.220;2023-07-08T11:33:39;6.15;;;4.32;;
74904;SDS011;63465;50.862;6.220;2023-07-08T11:36:06;7.05;;;4.30;;
74904;SDS011;63465;50.862;6.220;2023-07-08T11:38:34;8.02;;;4.53;;
74904;SDS011;63465;50.862;6.220;2023-07-08T11:41:01;4.30;;;3.78;;
74904;SDS011;63465;50.862;6.220;2023-07-08T11:46:14;7.00;;;3.92;;
74904;SDS011;63465;50.862;6.220;2023-07-08T11:48:46;4.45;;;3.35;;
74904;SDS011;63465;50.862;6.220;2023-07-08T11:51:16;6.45;;;3.58;;
74904;SDS011;63465;50.862;6.220;2023-07-08T11:53:48;4.00;;;3.58;;
74904;SDS011;63465;50.862;6.220;2023-07-08T11:56:29;7.15;;;3.88;;
74904;SDS011;63465;50.862;6.220;2023-07-08T11:59:17;6.90;;;4.28;;
74904;SDS011;63465;50.862;6.220;2023-07-08T12:04:26;6.03;;;3.95;;
74904;SDS011;63465;50.862;6.220;2023-07-08T12:09:38;8.67;;;4.00;;
74904;SDS011;63465;50.862;6.220;2023-07-08T12:12:16;6.00;;;4.40;;
74904;SDS011;63465;50.862;6.220;2023-07-08T12:14:46;6.43;;;4.73;;
74904;SDS011;63465;50.862;6.220;2023-07-08T12:17:12;8.50;;;4.27;;
74904;SDS011;63465;50.862;6.220;2023-07-08T12:19:39;9.57;;;5.07;;
74904;SDS011;63465;50.862;6.220;2023-07-08T12:22:09;7.17;;;4.70;;
74904;SDS011;63465;50.862;6.220;2023-07-08T12:24:37;8.13;;;5.07;;
74904;SDS011;63465;50.862;6.220;2023-07-08T12:27:02;8.07;;;5.20;;
74904;SDS011;63465;50.862;6.220;2023-07-08T12:29:28;7.33;;;4.67;;
74904;SDS011;63465;50.862;6.220;2023-07-08T12:31:53;8.10;;;5.07;;
74904;SDS011;63465;50.862;6.220;2023-07-08T12:34:19;7.70;;;4.63;;
74904;SDS011;63465;50.862;6.220;2023-07-08T12:36:47;5.77;;;4.97;;
74904;SDS011;63465;50.862;6.220;2023-07-08T12:39:13;11.57;;;4.93;;
74904;SDS011;63465;50.862;6.220;2023-07-08T12:41:40;6.63;;;4.67;;
74904;SDS011;63465;50.862;6.220;2023-07-08T12:44:17;7.70;;;4.93;;
74904;SDS011;63465;50.862;6.220;2023-07-08T12:46:44;11.33;;;5.10;;
74904;SDS011;63465;50.862;6.220;2023-07-08T12:49:12;8.23;;;4.83;;
74904;SDS011;63465;50.862;6.220;2023-07-08T12:51:37;7.00;;;4.40;;
74904;SDS011;63465;50.862;6.220;2023-07-08T12:54:08;7.43;;;4.90;;
74904;SDS011;63465;50.862;6.220;2023-07-08T12:56:35;7.10;;;4.27;;
74904;SDS011;63465;50.862;6.220;2023-07-08T12:59:01;7.30;;;4.80;;
74904;SDS011;63465;50.862;6.220;2023-07-08T13:01:28;9.63;;;4.80;;
74904;SDS011;63465;50.862;6.220;2023-07-08T13:03:56;7.17;;;4.90;;
74904;SDS011;63465;50.862;6.220;2023-07-08T13:06:27;8.97;;;4.70;;
74904;SDS011;63465;50.862;6.220;2023-07-08T13:08:57;7.37;;;5.00;;
74904;SDS011;63465;50.862;6.220;2023-07-08T13:11:29;8.07;;;4.70;;
74904;SDS011;63465;50.862;6.220;2023-07-08T13:13:57;10.13;;;5.33;;
74904;SDS011;63465;50.862;6.220;2023-07-08T13:16:29;8.63;;;5.27;;
74904;SDS011;63465;50.862;6.220;2023-07-08T13:18:58;11.27;;;5.73;;
74904;SDS011;63465;50.862;6.220;2023-07-08T13:21:24;10.23;;;4.83;;
74904;SDS011;63465;50.862;6.220;2023-07-08T13:23:52;6.10;;;5.13;;
74904;SDS011;63465;50.862;6.220;2023-07-08T13:26:18;10.37;;;5.50;;
74904;SDS011;63465;50.862;6.220;2023-07-08T13:28:46;6.07;;;4.93;;
74904;SDS011;63465;50.862;6.220;2023-07-08T13:31:21;7.80;;;5.30;;
74904;SDS011;63465;50.862;6.220;2023-07-08T13:33:52;10.40;;;5.23;;
74904;SDS011;63465;50.862;6.220;2023-07-08T13:36:31;6.37;;;4.40;;
74904;SDS011;63465;50.862;6.220;2023-07-08T13:38:58;8.53;;;4.67;;
74904;SDS011;63465;50.862;6.220;2023-07-08T13:41:26;10.40;;;4.73;;
74904;SDS011;63465;50.862;6.220;2023-07-08T13:43:52;10.30;;;5.13;;
74904;SDS011;63465;50.862;6.220;2023-07-08T13:49:01;12.23;;;5.63;;
74904;SDS011;63465;50.862;6.220;2023-07-08T13:51:30;8.50;;;5.43;;
74904;SDS011;63465;50.862;6.220;2023-07-08T13:54:01;11.17;;;4.53;;
74904;SDS011;63465;50.862;6.220;2023-07-08T13:56:37;10.80;;;5.33;;
74904;SDS011;63465;50.862;6.220;2023-07-08T13:59:07;11.17;;;5.27;;
74904;SDS011;63465;50.862;6.220;2023-07-08T14:01:35;8.43;;;4.73;;
74904;SDS011;63465;50.862;6.220;2023-07-08T14:04:03;7.57;;;5.17;;
74904;SDS011;63465;50.862;6.220;2023-07-08T14:06:34;7.67;;;5.20;;
74904;SDS011;63465;50.862;6.220;2023-07-08T14:09:12;8.30;;;5.57;;
74904;SDS011;63465;50.862;6.220;2023-07-08T14:11:39;8.33;;;4.90;;
74904;SDS011;63465;50.862;6.220;2023-07-08T14:14:04;7.33;;;5.10;;
74904;SDS011;63465;50.862;6.220;2023-07-08T14:16:30;11.13;;;5.30;;
74904;SDS011;63465;50.862;6.220;2023-07-08T14:18:59;7.30;;;4.90;;
74904;SDS011;63465;50.862;6.220;2023-07-08T14:21:28;7.30;;;5.07;;
74904;SDS011;63465;50.862;6.220;2023-07-08T14:23:54;6.90;;;5.50;;
74904;SDS011;63465;50.862;6.220;2023-07-08T14:26:20;9.07;;;5.00;;
74904;SDS011;63465;50.862;6.220;2023-07-08T14:28:45;14.30;;;5.33;;
74904;SDS011;63465;50.862;6.220;2023-07-08T14:31:11;7.27;;;5.07;;
74904;SDS011;63465;50.862;6.220;2023-07-08T14:33:37;7.23;;;4.87;;
74904;SDS011;63465;50.862;6.220;2023-07-08T14:36:06;6.50;;;5.00;;
74904;SDS011;63465;50.862;6.220;2023-07-08T14:38:34;8.23;;;4.97;;
74904;SDS011;63465;50.862;6.220;2023-07-08T14:40:59;10.13;;;5.87;;
74904;SDS011;63465;50.862;6.220;2023-07-08T14:43:28;10.63;;;5.30;;
74904;SDS011;63465;50.862;6.220;2023-07-08T14:45:55;7.20;;;5.00;;
74904;SDS011;63465;50.862;6.220;2023-07-08T14:48:23;13.77;;;5.30;;
74904;SDS011;63465;50.862;6.220;2023-07-08T14:50:49;11.77;;;5.63;;
74904;SDS011;63465;50.862;6.220;2023-07-08T14:53:15;7.70;;;5.03;;
74904;SDS011;63465;50.862;6.220;2023-07-08T14:55:42;7.63;;;5.20;;
74904;SDS011;63465;50.862;6.220;2023-07-08T14:58:09;10.53;;;5.43;;
74904;SDS011;63465;50.862;6.220;2023-07-08T15:00:41;8.37;;;5.30;;
74904;SDS011;63465;50.862;6.220;2023-07-08T15:03:07;13.03;;;6.13;;
74904;SDS011;63465;50.862;6.220;2023-07-08T15:05:32;7.80;;;5.40;;
74904;SDS011;63465;50.862;6.220;2023-07-08T15:07:57;8.67;;;6.07;;
74904;SDS011;63465;50.862;6.220;2023-07-08T15:10:24;8.30;;;6.03;;
74904;SDS011;63465;50.862;6.220;2023-07-08T15:12:51;11.83;;;5.80;;
74904;SDS011;63465;50.862;6.220;2023-07-08T15:15:27;11.37;;;6.63;;
74904;SDS011;63465;50.862;6.220;2023-07-08T15:17:52;11.60;;;6.63;;
74904;SDS011;63465;50.862;6.220;2023-07-08T15:20:18;26.47;;;6.40;;
74904;SDS011;63465;50.862;6.220;2023-07-08T15:22:44;10.77;;;6.17;;
74904;SDS011;63465;50.862;6.220;2023-07-08T15:25:11;15.50;;;6.10;;
74904;SDS011;63465;50.862;6.220;2023-07-08T15:27:40;10.20;;;5.93;;
74904;SDS011;63465;50.862;6.220;2023-07-08T15:30:14;13.23;;;6.37;;
74904;SDS011;63465;50.862;6.220;2023-07-08T15:32:42;11.50;;;6.27;;
74904;SDS011;63465;50.862;6.220;2023-07-08T15:35:19;10.93;;;7.10;;
74904;SDS011;63465;50.862;6.220;2023-07-08T15:37:55;7.43;;;5.33;;
74904;SDS011;63465;50.862;6.220;2023-07-08T15:40:21;7.40;;;6.00;;
74904;SDS011;63465;50.862;6.220;2023-07-08T15:42:48;13.83;;;6.43;;
74904;SDS011;63465;50.862;6.220;2023-07-08T15:45:26;10.90;;;6.20;;
74904;SDS011;63465;50.862;6.220;2023-07-08T15:47:55;10.73;;;6.43;;
74904;SDS011;63465;50.862;6.220;2023-07-08T15:50:21;11.33;;;6.20;;
74904;SDS011;63465;50.862;6.220;2023-07-08T15:52:49;10.43;;;6.13;;
74904;SDS011;63465;50.862;6.220;2023-07-08T15:55:18;10.10;;;6.40;;
74904;SDS011;63465;50.862;6.220;2023-07-08T15:57:50;10.53;;;6.30;;
74904;SDS011;63465;50.862;6.220;2023-07-08T16:00:20;10.20;;;5.90;;
74904;SDS011;63465;50.862;6.220;2023-07-08T16:02:49;14.77;;;5.70;;
74904;SDS011;63465;50.862;6.220;2023-07-08T16:05:17;12.20;;;6.60;;